createdAt,value
2023-05-17T00:00:57.734Z,94.98
2023-05-17T00:03:24.824Z,96.94
2023-05-17T00:05:52.024Z,97.71
2023-05-17T00:08:19.125Z,96.55
2023-05-17T00:10:46.133Z,97.38
2023-05-17T00:13:13.129Z,96.88
2023-05-17T00:15:40.356Z,96.54
2023-05-17T00:18:07.494Z,95.75
2023-05-17T00:20:35.879Z,94.56
2023-05-17T00:23:03.288Z,95.02
2023-05-17T00:25:30.674Z,95.64
2023-05-17T00:27:57.941Z,95.90
2023-05-17T00:30:25.080Z,96.17
2023-05-17T00:32:52.219Z,96.56
2023-05-17T00:35:19.423Z,97.21
2023-05-17T00:37:48.113Z,96.92
2023-05-17T00:40:16.357Z,97.81
2023-05-17T00:42:43.606Z,98.42
2023-05-17T00:45:11.047Z,99.24
2023-05-17T00:47:38.243Z,99.03
2023-05-17T00:50:06.686Z,100.00
2023-05-17T00:52:33.955Z,99.76
2023-05-17T00:55:01.190Z,99.92
2023-05-17T00:57:29.296Z,100.00
2023-05-17T00:59:56.768Z,100.00
2023-05-17T01:02:24.162Z,100.00
2023-05-17T01:04:51.345Z,100.00
2023-05-17T01:07:18.570Z,100.00
2023-05-17T01:09:46.338Z,100.00
2023-05-17T01:12:40.636Z,100.00
2023-05-17T01:15:36.836Z,100.00
2023-05-17T01:18:16.332Z,100.00
2023-05-17T01:20:49.130Z,100.00
2023-05-17T01:24:00.285Z,100.00
2023-05-17T01:26:44.229Z,100.00
2023-05-17T01:29:15.457Z,100.00
2023-05-17T01:31:42.804Z,100.00
2023-05-17T01:34:09.915Z,100.00
2023-05-17T01:36:37.420Z,100.00
2023-05-17T01:39:04.473Z,100.00
2023-05-17T01:41:44.582Z,100.00
2023-05-17T01:44:35.719Z,100.00
2023-05-17T01:47:15.725Z,100.00
2023-05-17T01:49:48.876Z,100.00
2023-05-17T01:52:53.509Z,100.00
2023-05-17T01:55:39.367Z,100.00
2023-05-17T01:58:09.866Z,100.00
2023-05-17T02:00:39.136Z,100.00
2023-05-17T02:03:06.511Z,100.00
2023-05-17T02:05:33.588Z,100.00
2023-05-17T02:08:00.708Z,100.00
2023-05-17T02:10:27.841Z,100.00
2023-05-17T02:12:54.929Z,100.00
2023-05-17T02:15:21.931Z,100.00
2023-05-17T02:17:49.147Z,100.00
2023-05-17T02:20:16.274Z,100.00
2023-05-17T02:22:43.310Z,100.00
2023-05-17T02:25:10.603Z,100.00
2023-05-17T02:27:37.672Z,100.00
2023-05-17T02:30:05.511Z,100.00
2023-05-17T02:32:33.247Z,100.00
2023-05-17T02:35:00.741Z,100.00
2023-05-17T02:37:27.845Z,100.00
2023-05-17T02:39:55.035Z,100.00
2023-05-17T02:42:22.166Z,100.00
2023-05-17T02:44:52.997Z,100.00
2023-05-17T02:47:21.347Z,100.00
2023-05-17T02:49:48.464Z,100.00
2023-05-17T02:52:16.413Z,100.00
2023-05-17T02:54:47.875Z,100.00
2023-05-17T02:57:14.944Z,100.00
2023-05-17T02:59:41.939Z,100.00
2023-05-17T03:02:08.967Z,100.00
2023-05-17T03:04:36.992Z,100.00
2023-05-17T03:07:06.888Z,100.00
2023-05-17T03:09:34.778Z,100.00
2023-05-17T03:12:02.016Z,100.00
2023-05-17T03:14:29.090Z,100.00
2023-05-17T03:16:56.120Z,100.00
2023-05-17T03:19:23.380Z,100.00
2023-05-17T03:21:50.669Z,100.00
2023-05-17T03:24:17.906Z,100.00
2023-05-17T03:26:45.046Z,100.00
2023-05-17T03:29:12.128Z,100.00
2023-05-17T03:31:39.246Z,100.00
2023-05-17T03:34:06.365Z,100.00
2023-05-17T03:36:35.582Z,100.00
2023-05-17T03:39:02.755Z,100.00
2023-05-17T03:41:29.849Z,100.00
2023-05-17T03:43:56.879Z,100.00
2023-05-17T03:46:24.060Z,100.00
2023-05-17T03:48:51.874Z,100.00
2023-05-17T03:51:19.074Z,100.00
2023-05-17T03:53:46.305Z,100.00
2023-05-17T03:56:13.667Z,100.00
2023-05-17T03:58:40.741Z,100.00
2023-05-17T04:01:07.902Z,100.00
2023-05-17T04:03:35.014Z,100.00
2023-05-17T04:06:07.785Z,100.00
2023-05-17T04:08:36.080Z,100.00
2023-05-17T04:11:15.232Z,100.00
2023-05-17T04:13:42.757Z,100.00
2023-05-17T04:16:10.638Z,100.00
2023-05-17T04:18:38.969Z,100.00
2023-05-17T04:21:06.967Z,100.00
2023-05-17T04:23:34.895Z,100.00
2023-05-17T04:26:03.438Z,100.00
2023-05-17T04:28:31.242Z,100.00
2023-05-17T04:30:58.633Z,100.00
2023-05-17T04:33:25.866Z,100.00
2023-05-17T04:35:55.846Z,100.00
2023-05-17T04:38:24.072Z,100.00
2023-05-17T04:40:51.332Z,100.00
2023-05-17T04:43:18.425Z,100.00
2023-05-17T04:45:45.445Z,100.00
2023-05-17T04:48:12.865Z,100.00
2023-05-17T04:50:40.078Z,100.00
2023-05-17T04:53:07.136Z,100.00
2023-05-17T04:55:34.275Z,100.00
2023-05-17T04:58:01.306Z,100.00
2023-05-17T05:00:28.352Z,100.00
2023-05-17T05:02:55.710Z,100.00
2023-05-17T05:05:22.857Z,100.00
2023-05-17T05:07:49.937Z,100.00
2023-05-17T05:10:17.185Z,100.00
2023-05-17T05:12:44.939Z,100.00
2023-05-17T05:15:12.384Z,100.00
2023-05-17T05:17:39.620Z,100.00
2023-05-17T05:20:08.735Z,100.00
2023-05-17T05:22:35.968Z,100.00
2023-05-17T05:25:03.052Z,100.00
2023-05-17T05:27:30.093Z,100.00
2023-05-17T05:29:57.238Z,100.00
2023-05-17T05:32:24.456Z,100.00
2023-05-17T05:34:51.587Z,100.00
2023-05-17T05:37:19.384Z,100.00
2023-05-17T05:39:47.030Z,100.00
2023-05-17T05:42:14.068Z,100.00
2023-05-17T05:44:41.077Z,100.00
2023-05-17T05:47:08.098Z,100.00
2023-05-17T05:49:35.094Z,100.00
2023-05-17T05:52:02.093Z,100.00
2023-05-17T05:54:29.148Z,100.00
2023-05-17T05:56:56.170Z,100.00
2023-05-17T05:59:23.223Z,100.00
2023-05-17T06:01:50.248Z,100.00
2023-05-17T06:04:17.283Z,100.00
2023-05-17T06:06:44.388Z,100.00
2023-05-17T06:09:12.407Z,100.00
2023-05-17T06:11:39.878Z,100.00
2023-05-17T06:14:07.026Z,100.00
2023-05-17T06:16:34.673Z,100.00
2023-05-17T06:19:01.837Z,100.00
2023-05-17T06:21:28.939Z,100.00
2023-05-17T06:23:56.031Z,100.00
2023-05-17T06:26:23.108Z,100.00
2023-05-17T06:28:50.114Z,100.00
2023-05-17T06:31:19.129Z,100.00
2023-05-17T06:33:47.483Z,100.00
2023-05-17T06:36:14.839Z,100.00
2023-05-17T06:38:44.635Z,100.00
2023-05-17T06:41:11.822Z,100.00
2023-05-17T06:43:38.846Z,100.00
2023-05-17T06:46:05.922Z,100.00
2023-05-17T06:48:33.272Z,100.00
2023-05-17T06:51:00.725Z,100.00
2023-05-17T06:53:27.834Z,100.00
2023-05-17T06:55:57.588Z,100.00
2023-05-17T06:58:24.633Z,100.00
2023-05-17T07:00:51.681Z,100.00
2023-05-17T07:03:18.753Z,100.00
2023-05-17T07:05:45.884Z,100.00
2023-05-17T07:08:12.943Z,100.00
2023-05-17T07:10:39.952Z,100.00
2023-05-17T07:13:06.952Z,100.00
2023-05-17T07:15:33.972Z,100.00
2023-05-17T07:18:01.167Z,100.00
2023-05-17T07:20:28.398Z,100.00
2023-05-17T07:22:56.323Z,100.00
2023-05-17T07:25:23.343Z,100.00
2023-05-17T07:27:50.985Z,100.00
2023-05-17T07:30:18.265Z,100.00
2023-05-17T07:32:45.730Z,100.00
2023-05-17T07:35:12.952Z,100.00
2023-05-17T07:37:39.965Z,100.00
2023-05-17T07:40:08.624Z,100.00
2023-05-17T07:42:35.620Z,100.00
2023-05-17T07:45:02.834Z,100.00
2023-05-17T07:47:31.064Z,100.00
2023-05-17T07:49:58.188Z,100.00
2023-05-17T07:52:25.276Z,100.00
2023-05-17T07:54:52.281Z,100.00
2023-05-17T07:57:19.630Z,100.00
2023-05-17T07:59:46.768Z,100.00
2023-05-17T08:02:13.902Z,100.00
2023-05-17T08:04:42.159Z,100.00
2023-05-17T08:07:09.821Z,100.00
2023-05-17T08:09:37.024Z,100.00
2023-05-17T08:12:11.831Z,100.00
2023-05-17T08:14:40.108Z,100.00
2023-05-17T08:17:07.294Z,100.00
2023-05-17T08:19:35.099Z,100.00
2023-05-17T08:22:02.257Z,100.00
2023-05-17T08:24:29.433Z,100.00
2023-05-17T08:26:56.692Z,100.00
2023-05-17T08:29:23.823Z,100.00
2023-05-17T08:31:52.576Z,100.00
2023-05-17T08:34:19.762Z,100.00
2023-05-17T08:36:47.740Z,100.00
2023-05-17T08:39:15.580Z,100.00
2023-05-17T08:41:42.593Z,100.00
2023-05-17T08:44:10.762Z,100.00
2023-05-17T08:46:39.997Z,100.00
2023-05-17T08:49:08.523Z,100.00
2023-05-17T08:51:37.314Z,100.00
2023-05-17T08:54:06.287Z,100.00
2023-05-17T08:56:35.706Z,98.92
2023-05-17T08:59:06.509Z,99.12
2023-05-17T09:01:33.742Z,100.00
2023-05-17T09:04:00.981Z,100.00
2023-05-17T09:06:28.282Z,100.00
2023-05-17T09:08:55.813Z,100.00
2023-05-17T09:11:31.273Z,100.00
2023-05-17T09:14:06.519Z,98.97
2023-05-17T09:16:36.361Z,97.45
2023-05-17T09:19:06.425Z,97.82
2023-05-17T09:21:34.408Z,98.49
2023-05-17T09:26:46.189Z,97.85
2023-05-17T09:29:17.501Z,98.85
2023-05-17T09:31:45.249Z,99.94
2023-05-17T09:34:12.374Z,99.21
2023-05-17T09:36:43.963Z,99.90
2023-05-17T09:39:13.622Z,98.63
2023-05-17T09:41:47.975Z,97.69
2023-05-17T09:44:16.601Z,98.43
2023-05-17T09:46:48.927Z,99.78
2023-05-17T09:49:18.058Z,99.42
2023-05-17T09:51:48.413Z,99.15
2023-05-17T09:54:17.733Z,97.62
2023-05-17T09:56:45.049Z,97.05
2023-05-17T09:59:14.811Z,98.17
2023-05-17T10:01:45.189Z,98.56
2023-05-17T10:04:13.967Z,98.06
2023-05-17T10:09:17.145Z,94.19
2023-05-17T10:11:47.396Z,93.98
2023-05-17T10:14:32.552Z,93.87
2023-05-17T10:17:02.559Z,94.25
2023-05-17T10:19:30.701Z,94.31
2023-05-17T10:22:11.025Z,95.13
2023-05-17T10:24:46.682Z,95.26
2023-05-17T10:27:14.851Z,94.52
2023-05-17T10:29:43.716Z,94.73
2023-05-17T10:32:14.484Z,94.88
2023-05-17T10:34:41.600Z,94.81
2023-05-17T10:37:09.756Z,93.93
2023-05-17T10:39:38.897Z,93.25
2023-05-17T10:42:14.685Z,93.03
2023-05-17T10:44:42.946Z,93.30
2023-05-17T10:47:11.658Z,92.22
2023-05-17T10:49:41.548Z,92.21
2023-05-17T10:52:17.926Z,90.37
2023-05-17T10:54:50.104Z,89.70
2023-05-17T11:00:10.944Z,91.45
2023-05-17T11:02:42.617Z,91.16
2023-05-17T11:05:24.997Z,90.91
2023-05-17T11:07:54.355Z,89.77
2023-05-17T11:10:22.789Z,89.18
2023-05-17T11:12:55.358Z,89.92
2023-05-17T11:15:26.559Z,87.98
2023-05-17T11:17:54.283Z,88.25
2023-05-17T11:20:27.408Z,89.21
2023-05-17T11:23:16.859Z,89.05
2023-05-17T11:25:44.596Z,88.42
2023-05-17T11:28:22.371Z,88.48
2023-05-17T11:30:53.840Z,89.66
2023-05-17T11:33:36.981Z,90.17
2023-05-17T11:36:17.904Z,89.11
2023-05-17T11:38:50.001Z,89.86
2023-05-17T11:41:27.140Z,90.40
2023-05-17T11:43:55.508Z,90.69
2023-05-17T11:46:24.295Z,90.33
2023-05-17T11:48:53.250Z,90.17
2023-05-17T11:51:24.340Z,91.31
2023-05-17T11:53:55.411Z,90.43
2023-05-17T11:56:35.734Z,91.64
2023-05-17T11:59:10.637Z,91.44
2023-05-17T12:01:49.094Z,91.40
2023-05-17T12:04:28.905Z,91.18
2023-05-17T12:06:58.371Z,91.47
2023-05-17T12:09:26.310Z,91.94
2023-05-17T12:11:53.583Z,91.45
2023-05-17T12:14:21.844Z,92.43
2023-05-17T12:16:53.650Z,93.46
2023-05-17T12:19:22.575Z,93.37
2023-05-17T12:21:50.715Z,94.17
2023-05-17T12:24:18.025Z,93.95
2023-05-17T12:26:48.555Z,93.76
2023-05-17T12:29:23.067Z,94.25
2023-05-17T12:31:53.264Z,94.75
2023-05-17T12:34:20.766Z,94.26
2023-05-17T12:36:48.914Z,94.35
2023-05-17T12:39:18.095Z,93.74
2023-05-17T12:41:45.243Z,94.78
2023-05-17T12:44:15.748Z,95.28
2023-05-17T12:46:44.081Z,94.80
2023-05-17T12:49:12.633Z,94.63
2023-05-17T12:51:46.711Z,94.20
2023-05-17T12:54:26.467Z,94.08
2023-05-17T12:56:53.497Z,94.90
2023-05-17T12:59:21.492Z,95.65
2023-05-17T13:01:55.653Z,94.60
2023-05-17T13:04:34.648Z,95.52
2023-05-17T13:07:05.228Z,95.74
2023-05-17T13:09:34.552Z,95.39
2023-05-17T13:12:06.864Z,95.28
2023-05-17T13:14:36.378Z,96.40
2023-05-17T13:17:06.007Z,96.76
2023-05-17T13:19:33.661Z,97.79
2023-05-17T13:22:00.753Z,98.02
2023-05-17T13:24:28.294Z,97.61
2023-05-17T13:26:55.423Z,98.55
2023-05-17T13:29:35.281Z,97.84
2023-05-17T13:32:07.873Z,98.19
2023-05-17T13:34:35.309Z,98.76
2023-05-17T13:37:02.622Z,98.38
2023-05-17T13:39:29.857Z,98.08
2023-05-17T13:41:56.898Z,97.64
2023-05-17T13:44:23.957Z,97.12
2023-05-17T13:46:51.210Z,96.33
2023-05-17T13:49:18.478Z,95.78
2023-05-17T13:51:45.978Z,96.36
2023-05-17T13:54:13.065Z,96.66
2023-05-17T13:56:40.161Z,97.26
2023-05-17T13:59:07.594Z,96.13
2023-05-17T14:01:34.768Z,95.40
2023-05-17T14:04:01.987Z,95.98
2023-05-17T14:06:29.180Z,95.55
2023-05-17T14:08:57.682Z,94.55
2023-05-17T14:11:24.827Z,92.08
2023-05-17T14:13:51.963Z,90.98
2023-05-17T14:16:18.974Z,90.61
2023-05-17T14:18:46.452Z,89.89
2023-05-17T14:21:13.591Z,89.61
2023-05-17T14:23:40.828Z,88.24
2023-05-17T14:26:09.347Z,88.35
2023-05-17T14:28:39.003Z,89.39
2023-05-17T14:31:07.963Z,90.67
2023-05-17T14:33:35.439Z,90.49
2023-05-17T14:36:06.104Z,89.57
2023-05-17T14:38:33.180Z,90.05
2023-05-17T14:41:03.487Z,90.82
2023-05-17T14:43:30.576Z,91.64
2023-05-17T14:45:57.626Z,90.93
2023-05-17T14:48:24.757Z,89.75
2023-05-17T14:50:53.397Z,87.88
2023-05-17T14:53:20.838Z,85.40
2023-05-17T14:55:47.852Z,85.48
2023-05-17T14:58:14.893Z,84.74
2023-05-17T15:00:47.690Z,84.85
2023-05-17T15:03:17.812Z,85.23
2023-05-17T15:05:54.662Z,84.23
2023-05-17T15:08:22.161Z,84.98
2023-05-17T15:10:51.299Z,85.62
2023-05-17T15:13:18.599Z,84.52
2023-05-17T15:15:46.867Z,85.03
2023-05-17T15:18:14.050Z,86.17
2023-05-17T15:20:42.289Z,83.50
2023-05-17T15:23:09.381Z,83.99
2023-05-17T15:25:36.872Z,84.79
2023-05-17T15:28:04.073Z,83.69
2023-05-17T15:30:31.134Z,85.36
2023-05-17T15:32:59.965Z,86.51
2023-05-17T15:35:27.706Z,87.98
2023-05-17T15:37:55.102Z,89.36
2023-05-17T15:40:22.468Z,90.62
2023-05-17T15:42:51.742Z,90.10
2023-05-17T15:45:21.474Z,90.74
2023-05-17T15:47:49.517Z,92.27
2023-05-17T15:50:17.071Z,92.61
2023-05-17T15:52:44.278Z,92.85
2023-05-17T15:55:11.712Z,91.62
2023-05-17T15:57:38.758Z,93.10
2023-05-17T16:00:06.792Z,93.07
2023-05-17T16:02:34.561Z,92.38
2023-05-17T16:05:03.792Z,92.66
2023-05-17T16:07:31.530Z,93.21
2023-05-17T16:09:58.558Z,92.87
2023-05-17T16:12:25.617Z,92.62
2023-05-17T16:14:52.720Z,92.05
2023-05-17T16:17:19.807Z,92.95
2023-05-17T16:19:46.899Z,92.84
2023-05-17T16:22:14.142Z,93.38
2023-05-17T16:24:41.941Z,93.64
2023-05-17T16:27:08.986Z,92.83
2023-05-17T16:29:40.009Z,91.69
2023-05-17T16:32:08.728Z,91.11
2023-05-17T16:34:36.516Z,91.00
2023-05-17T16:37:06.727Z,90.17
2023-05-17T16:39:33.906Z,89.90
2023-05-17T16:42:01.613Z,89.74
2023-05-17T16:44:28.663Z,90.17
2023-05-17T16:46:55.697Z,89.09
2023-05-17T16:49:23.340Z,89.35
2023-05-17T16:51:52.252Z,89.61
2023-05-17T16:54:19.316Z,89.71
2023-05-17T16:56:46.535Z,90.73
2023-05-17T16:59:13.628Z,91.09
2023-05-17T17:01:40.724Z,90.92
2023-05-17T17:04:07.923Z,91.64
2023-05-17T17:06:35.439Z,92.29
2023-05-17T17:09:07.761Z,91.20
2023-05-17T17:11:35.177Z,89.21
2023-05-17T17:14:02.350Z,88.83
2023-05-17T17:16:29.927Z,89.26
2023-05-17T17:18:59.170Z,89.52
2023-05-17T17:21:26.552Z,90.59
2023-05-17T17:23:53.669Z,91.43
2023-05-17T17:26:21.096Z,91.52
2023-05-17T17:28:48.131Z,91.07
2023-05-17T17:31:15.218Z,90.15
2023-05-17T17:33:42.248Z,89.29
2023-05-17T17:36:11.272Z,89.86
2023-05-17T17:38:38.370Z,89.74
2023-05-17T17:41:05.610Z,89.43
2023-05-17T17:43:32.693Z,88.14
2023-05-17T17:45:59.673Z,87.88
2023-05-17T17:48:26.730Z,87.39
2023-05-17T17:50:53.961Z,88.23
2023-05-17T17:53:21.033Z,88.38
2023-05-17T17:55:48.047Z,88.19
2023-05-17T17:58:15.115Z,87.90
2023-05-17T18:00:42.236Z,86.86
2023-05-17T18:03:09.434Z,87.66
2023-05-17T18:05:36.578Z,87.16
2023-05-17T18:08:04.022Z,87.93
2023-05-17T18:10:31.813Z,86.70
2023-05-17T18:12:59.729Z,87.64
2023-05-17T18:15:26.829Z,87.55
2023-05-17T18:17:54.896Z,88.31
2023-05-17T18:20:26.442Z,88.83
2023-05-17T18:22:53.953Z,89.43
2023-05-17T18:25:21.745Z,89.57
2023-05-17T18:27:49.392Z,89.34
2023-05-17T18:30:18.652Z,90.00
2023-05-17T18:32:46.035Z,89.60
2023-05-17T18:35:14.368Z,89.25
2023-05-17T18:37:41.403Z,89.30
2023-05-17T18:40:09.121Z,90.08
2023-05-17T18:42:36.741Z,90.23
2023-05-17T18:45:04.413Z,89.96
2023-05-17T18:47:31.590Z,90.32
2023-05-17T18:49:59.618Z,89.81
2023-05-17T18:52:26.673Z,90.17
2023-05-17T18:54:53.700Z,90.72
2023-05-17T18:57:20.672Z,90.37
2023-05-17T18:59:47.969Z,90.30
2023-05-17T19:02:15.040Z,90.15
2023-05-17T19:04:42.120Z,90.38
2023-05-17T19:07:09.302Z,90.72
2023-05-17T19:09:36.349Z,90.49
2023-05-17T19:12:03.565Z,90.77
2023-05-17T19:14:32.079Z,90.90
2023-05-17T19:16:59.807Z,91.23
2023-05-17T19:19:27.148Z,91.35
2023-05-17T19:21:54.311Z,90.77
2023-05-17T19:24:21.431Z,90.55
2023-05-17T19:26:48.460Z,90.59
2023-05-17T19:29:15.504Z,90.50
2023-05-17T19:31:42.564Z,91.02
2023-05-17T19:34:09.586Z,91.34
2023-05-17T19:36:36.637Z,91.97
2023-05-17T19:39:03.784Z,92.17
2023-05-17T19:41:30.890Z,91.53
2023-05-17T19:43:57.983Z,90.65
2023-05-17T19:46:25.150Z,89.45
2023-05-17T19:48:53.133Z,89.01
2023-05-17T19:51:20.168Z,88.79
2023-05-17T19:53:53.072Z,88.81
2023-05-17T19:56:23.228Z,86.51
2023-05-17T19:58:52.129Z,86.11
2023-05-17T20:01:19.183Z,84.72
2023-05-17T20:03:46.325Z,84.37
2023-05-17T20:06:15.068Z,84.88
2023-05-17T20:08:42.524Z,83.99
2023-05-17T20:11:09.776Z,83.32
2023-05-17T20:13:40.348Z,83.51
2023-05-17T20:16:12.876Z,83.58
2023-05-17T20:18:43.531Z,83.84
2023-05-17T20:21:15.100Z,83.91
2023-05-17T20:23:42.457Z,83.88
2023-05-17T20:26:16.184Z,84.08
2023-05-17T20:28:46.741Z,84.09
2023-05-17T20:31:13.915Z,83.55
2023-05-17T20:33:40.957Z,83.56
2023-05-17T20:36:10.013Z,83.86
2023-05-17T20:38:37.179Z,83.59
2023-05-17T20:41:06.588Z,83.39
2023-05-17T20:43:35.057Z,83.60
2023-05-17T20:46:06.903Z,83.08
2023-05-17T20:48:34.736Z,84.34
2023-05-17T20:51:02.990Z,84.50
2023-05-17T20:53:30.758Z,84.99
2023-05-17T20:55:58.794Z,85.13
2023-05-17T20:58:26.037Z,84.56
2023-05-17T21:00:53.022Z,84.60
2023-05-17T21:03:20.143Z,84.01
2023-05-17T21:05:47.429Z,84.22
2023-05-17T21:08:14.477Z,83.88
2023-05-17T21:10:44.302Z,84.08
2023-05-17T21:13:12.542Z,84.57
2023-05-17T21:15:39.578Z,85.00
2023-05-17T21:18:07.879Z,85.33
2023-05-17T21:20:35.053Z,85.06
2023-05-17T21:23:02.142Z,84.63
2023-05-17T21:25:29.626Z,84.85
2023-05-17T21:27:56.863Z,84.13
2023-05-17T21:30:24.244Z,84.57
2023-05-17T21:32:51.503Z,84.08
2023-05-17T21:35:18.584Z,84.44
2023-05-17T21:37:45.628Z,82.93
2023-05-17T21:40:12.893Z,80.19
2023-05-17T21:42:40.182Z,79.14
2023-05-17T21:45:08.341Z,78.38
2023-05-17T21:47:36.134Z,78.28
2023-05-17T21:50:04.378Z,77.60
2023-05-17T21:52:31.443Z,77.35
2023-05-17T21:54:58.515Z,77.93
2023-05-17T21:57:25.612Z,77.57
2023-05-17T21:59:52.733Z,76.77
2023-05-17T22:02:20.101Z,75.82
2023-05-17T22:04:47.347Z,75.31
2023-05-17T22:07:14.377Z,73.83
2023-05-17T22:09:41.529Z,72.06
2023-05-17T22:12:09.316Z,70.91
2023-05-17T22:14:36.726Z,71.20
2023-05-17T22:17:08.633Z,70.01
2023-05-17T22:19:40.930Z,71.10
2023-05-17T22:22:08.610Z,70.01
2023-05-17T22:24:36.235Z,69.64
2023-05-17T22:27:04.159Z,69.00
2023-05-17T22:29:31.218Z,69.04
2023-05-17T22:31:58.408Z,69.00
2023-05-17T22:34:25.590Z,69.51
2023-05-17T22:36:52.625Z,69.46
2023-05-17T22:39:19.864Z,69.37
2023-05-17T22:41:46.867Z,69.98
2023-05-17T22:44:13.903Z,68.36
2023-05-17T22:46:42.095Z,68.67
2023-05-17T22:49:09.896Z,68.50
2023-05-17T22:51:37.026Z,68.51
2023-05-17T22:54:04.527Z,68.72
2023-05-17T22:56:31.725Z,69.43
2023-05-17T22:58:59.281Z,69.67
2023-05-17T23:01:26.503Z,68.75
2023-05-17T23:03:53.533Z,68.05
2023-05-17T23:06:22.249Z,68.55
2023-05-17T23:08:49.859Z,68.27
2023-05-17T23:11:18.125Z,68.74
2023-05-17T23:13:45.163Z,68.73
2023-05-17T23:16:14.136Z,69.49
2023-05-17T23:18:41.493Z,69.22
2023-05-17T23:21:09.545Z,70.13
2023-05-17T23:23:38.215Z,69.86
2023-05-17T23:26:06.012Z,68.98
2023-05-17T23:28:33.060Z,69.42
2023-05-17T23:31:01.456Z,69.37
2023-05-17T23:33:31.372Z,68.57
2023-05-17T23:36:01.372Z,68.42
2023-05-17T23:38:28.490Z,67.95
2023-05-17T23:40:56.389Z,67.60
2023-05-17T23:43:23.763Z,67.88
2023-05-17T23:45:51.442Z,67.78
2023-05-17T23:48:20.831Z,68.18
2023-05-17T23:50:47.917Z,67.72
2023-05-17T23:53:15.042Z,67.80
2023-05-17T23:55:42.045Z,68.29
2023-05-17T23:58:09.072Z,68.33
